sensor_id;sensor_type;location;lat;lon;timestamp;temperature;humidity
27647;DHT22;42229;51.230;6.240;2023-07-22T00:00:21;15.20;98.30
27647;DHT22;42229;51.230;6.240;2023-07-22T00:02:48;15.30;98.60
27647;DHT22;42229;51.230;6.240;2023-07-22T00:05:14;15.30;98.80
27647;DHT22;42229;51.230;6.240;2023-07-22T00:07:40;15.30;98.70
27647;DHT22;42229;51.230;6.240;2023-07-22T00:10:07;15.30;98.40
27647;DHT22;42229;51.230;6.240;2023-07-22T00:12:34;15.30;98.30
27647;DHT22;42229;51.230;6.240;2023-07-22T00:15:00;15.30;98.60
27647;DHT22;42229;51.230;6.240;2023-07-22T00:17:26;15.30;98.70
27647;DHT22;42229;51.230;6.240;2023-07-22T00:19:53;15.30;98.40
27647;DHT22;42229;51.230;6.240;2023-07-22T00:22:20;15.30;98.90
27647;DHT22;42229;51.230;6.240;2023-07-22T00:24:47;15.20;98.60
27647;DHT22;42229;51.230;6.240;2023-07-22T00:27:14;15.20;98.50
27647;DHT22;42229;51.230;6.240;2023-07-22T00:29:40;15.20;98.40
27647;DHT22;42229;51.230;6.240;2023-07-22T00:32:07;15.10;98.40
27647;DHT22;42229;51.230;6.240;2023-07-22T00:34:34;15.10;98.50
27647;DHT22;42229;51.230;6.240;2023-07-22T00:37:01;15.10;98.60
27647;DHT22;42229;51.230;6.240;2023-07-22T00:39:27;15.10;98.70
27647;DHT22;42229;51.230;6.240;2023-07-22T00:41:53;15.10;98.60
27647;DHT22;42229;51.230;6.240;2023-07-22T00:44:22;15.10;98.60
27647;DHT22;42229;51.230;6.240;2023-07-22T00:46:48;15.10;98.70
27647;DHT22;42229;51.230;6.240;2023-07-22T00:49:14;15.10;98.90
27647;DHT22;42229;51.230;6.240;2023-07-22T00:51:42;15.10;99.10
27647;DHT22;42229;51.230;6.240;2023-07-22T00:54:08;15.20;99.10
27647;DHT22;42229;51.230;6.240;2023-07-22T00:56:35;15.20;99.30
27647;DHT22;42229;51.230;6.240;2023-07-22T00:59:02;15.20;99.60
27647;DHT22;42229;51.230;6.240;2023-07-22T01:01:28;15.20;99.50
27647;DHT22;42229;51.230;6.240;2023-07-22T01:03:55;15.20;99.50
27647;DHT22;42229;51.230;6.240;2023-07-22T01:06:22;15.30;99.40
27647;DHT22;42229;51.230;6.240;2023-07-22T01:08:50;15.30;99.40
27647;DHT22;42229;51.230;6.240;2023-07-22T01:11:17;15.30;99.40
27647;DHT22;42229;51.230;6.240;2023-07-22T01:13:43;15.30;99.40
27647;DHT22;42229;51.230;6.240;2023-07-22T01:16:09;15.30;99.40
27647;DHT22;42229;51.230;6.240;2023-07-22T01:18:36;15.30;99.50
27647;DHT22;42229;51.230;6.240;2023-07-22T01:21:02;15.30;99.60
27647;DHT22;42229;51.230;6.240;2023-07-22T01:23:29;15.30;99.60
27647;DHT22;42229;51.230;6.240;2023-07-22T01:25:55;15.30;99.50
27647;DHT22;42229;51.230;6.240;2023-07-22T01:28:22;15.30;99.50
27647;DHT22;42229;51.230;6.240;2023-07-22T01:30:48;15.30;99.50
27647;DHT22;42229;51.230;6.240;2023-07-22T01:33:14;15.20;99.50
27647;DHT22;42229;51.230;6.240;2023-07-22T01:35:41;15.20;99.60
27647;DHT22;42229;51.230;6.240;2023-07-22T01:38:07;15.20;99.50
27647;DHT22;42229;51.230;6.240;2023-07-22T01:40:34;15.20;99.60
27647;DHT22;42229;51.230;6.240;2023-07-22T01:43:00;15.20;99.60
27647;DHT22;42229;51.230;6.240;2023-07-22T01:45:26;15.20;99.90
27647;DHT22;42229;51.230;6.240;2023-07-22T01:47:53;15.20;99.90
27647;DHT22;42229;51.230;6.240;2023-07-22T01:50:19;15.10;99.90
27647;DHT22;42229;51.230;6.240;2023-07-22T01:52:45;15.10;99.90
27647;DHT22;42229;51.230;6.240;2023-07-22T01:55:12;15.20;99.90
27647;DHT22;42229;51.230;6.240;2023-07-22T01:57:39;15.10;99.90
27647;DHT22;42229;51.230;6.240;2023-07-22T02:00:06;15.20;99.90
27647;DHT22;42229;51.230;6.240;2023-07-22T02:02:39;15.10;99.90
27647;DHT22;42229;51.230;6.240;2023-07-22T02:05:05;15.10;99.90
27647;DHT22;42229;51.230;6.240;2023-07-22T02:07:32;15.10;99.90
27647;DHT22;42229;51.230;6.240;2023-07-22T02:09:58;15.10;99.90
27647;DHT22;42229;51.230;6.240;2023-07-22T02:12:25;15.10;99.90
27647;DHT22;42229;51.230;6.240;2023-07-22T02:14:51;15.10;99.90
27647;DHT22;42229;51.230;6.240;2023-07-22T02:17:17;15.10;99.90
27647;DHT22;42229;51.230;6.240;2023-07-22T02:19:43;15.10;99.90
27647;DHT22;42229;51.230;6.240;2023-07-22T02:22:10;15.00;99.90
27647;DHT22;42229;51.230;6.240;2023-07-22T02:24:36;15.10;99.90
27647;DHT22;42229;51.230;6.240;2023-07-22T02:27:02;15.00;99.90
27647;DHT22;42229;51.230;6.240;2023-07-22T02:29:28;15.00;99.90
27647;DHT22;42229;51.230;6.240;2023-07-22T02:31:56;14.90;99.90
27647;DHT22;42229;51.230;6.240;2023-07-22T02:34:23;14.90;99.90
27647;DHT22;42229;51.230;6.240;2023-07-22T02:36:49;14.80;99.90
27647;DHT22;42229;51.230;6.240;2023-07-22T02:39:15;14.80;99.90
27647;DHT22;42229;51.230;6.240;2023-07-22T02:41:42;14.80;99.90
27647;DHT22;42229;51.230;6.240;2023-07-22T02:44:08;14.70;99.90
27647;DHT22;42229;51.230;6.240;2023-07-22T02:46:34;14.70;99.90
27647;DHT22;42229;51.230;6.240;2023-07-22T02:49:01;14.70;99.90
27647;DHT22;42229;51.230;6.240;2023-07-22T02:51:27;14.70;99.90
27647;DHT22;42229;51.230;6.240;2023-07-22T02:53:53;14.70;99.90
27647;DHT22;42229;51.230;6.240;2023-07-22T02:56:19;14.70;99.90
27647;DHT22;42229;51.230;6.240;2023-07-22T02:58:45;14.70;99.90
27647;DHT22;42229;51.230;6.240;2023-07-22T03:01:12;14.80;99.90
27647;DHT22;42229;51.230;6.240;2023-07-22T03:03:38;14.80;99.90
27647;DHT22;42229;51.230;6.240;2023-07-22T03:06:05;14.70;99.90
27647;DHT22;42229;51.230;6.240;2023-07-22T03:08:33;14.70;99.90
27647;DHT22;42229;51.230;6.240;2023-07-22T03:10:59;14.80;99.90
27647;DHT22;42229;51.230;6.240;2023-07-22T03:13:26;14.80;99.90
27647;DHT22;42229;51.230;6.240;2023-07-22T03:15:56;14.80;99.90
27647;DHT22;42229;51.230;6.240;2023-07-22T03:18:22;14.80;99.90
27647;DHT22;42229;51.230;6.240;2023-07-22T03:20:48;14.80;99.90
27647;DHT22;42229;51.230;6.240;2023-07-22T03:23:15;14.90;99.90
27647;DHT22;42229;51.230;6.240;2023-07-22T03:25:41;14.90;99.90
27647;DHT22;42229;51.230;6.240;2023-07-22T03:28:07;14.90;99.90
27647;DHT22;42229;51.230;6.240;2023-07-22T03:30:34;14.90;99.90
27647;DHT22;42229;51.230;6.240;2023-07-22T03:33:00;14.90;99.90
27647;DHT22;42229;51.230;6.240;2023-07-22T03:35:26;15.00;99.90
27647;DHT22;42229;51.230;6.240;2023-07-22T03:37:53;15.00;99.90
27647;DHT22;42229;51.230;6.240;2023-07-22T03:40:20;15.00;99.90
27647;DHT22;42229;51.230;6.240;2023-07-22T03:42:47;15.00;99.90
27647;DHT22;42229;51.230;6.240;2023-07-22T03:45:14;15.10;99.90
27647;DHT22;42229;51.230;6.240;2023-07-22T03:47:40;15.10;99.90
27647;DHT22;42229;51.230;6.240;2023-07-22T03:50:06;15.10;99.90
27647;DHT22;42229;51.230;6.240;2023-07-22T03:52:33;15.10;99.90
27647;DHT22;42229;51.230;6.240;2023-07-22T03:54:59;15.10;99.90
27647;DHT22;42229;51.230;6.240;2023-07-22T03:57:26;15.10;99.90
27647;DHT22;42229;51.230;6.240;2023-07-22T03:59:53;15.20;99.90
27647;DHT22;42229;51.230;6.240;2023-07-22T04:02:20;15.20;99.90
27647;DHT22;42229;51.230;6.240;2023-07-22T04:04:46;15.20;99.90
27647;DHT22;42229;51.230;6.240;2023-07-22T04:07:13;15.30;99.90
27647;DHT22;42229;51.230;6.240;2023-07-22T04:09:39;15.30;99.90
27647;DHT22;42229;51.230;6.240;2023-07-22T04:12:06;15.30;99.90
27647;DHT22;42229;51.230;6.240;2023-07-22T04:14:33;15.40;99.90
27647;DHT22;42229;51.230;6.240;2023-07-22T04:16:59;15.40;99.90
27647;DHT22;42229;51.230;6.240;2023-07-22T04:19:25;15.40;99.90
27647;DHT22;42229;51.230;6.240;2023-07-22T04:21:52;15.50;99.90
27647;DHT22;42229;51.230;6.240;2023-07-22T04:24:18;15.50;99.90
27647;DHT22;42229;51.230;6.240;2023-07-22T04:26:44;15.50;99.90
27647;DHT22;42229;51.230;6.240;2023-07-22T04:29:11;15.50;99.90
27647;DHT22;42229;51.230;6.240;2023-07-22T04:31:38;15.50;99.90
27647;DHT22;42229;51.230;6.240;2023-07-22T04:34:05;15.60;99.90
27647;DHT22;42229;51.230;6.240;2023-07-22T04:36:31;15.60;99.90
27647;DHT22;42229;51.230;6.240;2023-07-22T04:38:57;15.60;99.90
27647;DHT22;42229;51.230;6.240;2023-07-22T04:41:24;15.60;99.90
27647;DHT22;42229;51.230;6.240;2023-07-22T04:43:51;15.70;99.90
27647;DHT22;42229;51.230;6.240;2023-07-22T04:46:17;15.70;99.90
27647;DHT22;42229;51.230;6.240;2023-07-22T04:48:43;15.70;99.90
27647;DHT22;42229;51.230;6.240;2023-07-22T04:51:09;15.70;99.90
27647;DHT22;42229;51.230;6.240;2023-07-22T04:53:36;15.70;99.90
27647;DHT22;42229;51.230;6.240;2023-07-22T04:56:02;15.70;99.90
27647;DHT22;42229;51.230;6.240;2023-07-22T04:58:28;15.70;99.90
27647;DHT22;42229;51.230;6.240;2023-07-22T05:00:54;15.70;99.90
27647;DHT22;42229;51.230;6.240;2023-07-22T05:03:21;15.70;99.90
27647;DHT22;42229;51.230;6.240;2023-07-22T05:05:49;15.70;99.90
27647;DHT22;42229;51.230;6.240;2023-07-22T05:08:16;15.70;99.90
27647;DHT22;42229;51.230;6.240;2023-07-22T05:10:42;15.70;99.90
27647;DHT22;42229;51.230;6.240;2023-07-22T05:13:08;15.70;99.90
27647;DHT22;42229;51.230;6.240;2023-07-22T05:15:34;15.70;99.90
27647;DHT22;42229;51.230;6.240;2023-07-22T05:18:00;15.80;99.90
27647;DHT22;42229;51.230;6.240;2023-07-22T05:20:27;15.80;99.90
27647;DHT22;42229;51.230;6.240;2023-07-22T05:22:53;15.80;99.90
27647;DHT22;42229;51.230;6.240;2023-07-22T05:25:19;15.80;99.90
27647;DHT22;42229;51.230;6.240;2023-07-22T05:27:45;15.80;99.90
27647;DHT22;42229;51.230;6.240;2023-07-22T05:30:12;15.90;99.90
27647;DHT22;42229;51.230;6.240;2023-07-22T05:32:38;15.90;99.90
27647;DHT22;42229;51.230;6.240;2023-07-22T05:35:04;16.00;99.90
27647;DHT22;42229;51.230;6.240;2023-07-22T05:37:31;16.00;99.90
27647;DHT22;42229;51.230;6.240;2023-07-22T05:39:58;16.00;99.90
27647;DHT22;42229;51.230;6.240;2023-07-22T05:42:24;16.10;99.90
27647;DHT22;42229;51.230;6.240;2023-07-22T05:44:51;16.20;99.90
27647;DHT22;42229;51.230;6.240;2023-07-22T05:47:17;16.20;99.90
27647;DHT22;42229;51.230;6.240;2023-07-22T05:49:43;16.30;99.90
27647;DHT22;42229;51.230;6.240;2023-07-22T05:52:09;16.40;99.90
27647;DHT22;42229;51.230;6.240;2023-07-22T05:54:36;16.40;99.90
27647;DHT22;42229;51.230;6.240;2023-07-22T05:57:02;16.50;99.90
27647;DHT22;42229;51.230;6.240;2023-07-22T05:59:30;16.60;99.90
27647;DHT22;42229;51.230;6.240;2023-07-22T06:01:56;16.70;99.90
27647;DHT22;42229;51.230;6.240;2023-07-22T06:04:23;16.70;99.90
27647;DHT22;42229;51.230;6.240;2023-07-22T06:06:49;16.90;99.90
27647;DHT22;42229;51.230;6.240;2023-07-22T06:09:15;16.90;99.90
27647;DHT22;42229;51.230;6.240;2023-07-22T06:11:42;16.90;99.90
27647;DHT22;42229;51.230;6.240;2023-07-22T06:14:08;17.00;99.90
27647;DHT22;42229;51.230;6.240;2023-07-22T06:16:35;17.10;99.90
27647;DHT22;42229;51.230;6.240;2023-07-22T06:19:01;17.20;99.90
27647;DHT22;42229;51.230;6.240;2023-07-22T06:21:27;17.30;99.90
27647;DHT22;42229;51.230;6.240;2023-07-22T06:23:54;17.40;99.90
27647;DHT22;42229;51.230;6.240;2023-07-22T06:26:20;17.50;99.90
27647;DHT22;42229;51.230;6.240;2023-07-22T06:28:46;17.60;99.90
27647;DHT22;42229;51.230;6.240;2023-07-22T06:31:12;17.60;99.90
27647;DHT22;42229;51.230;6.240;2023-07-22T06:33:39;17.80;99.90
27647;DHT22;42229;51.230;6.240;2023-07-22T06:36:05;17.80;99.90
27647;DHT22;42229;51.230;6.240;2023-07-22T06:38:31;17.90;99.90
27647;DHT22;42229;51.230;6.240;2023-07-22T06:40:57;17.90;99.90
27647;DHT22;42229;51.230;6.240;2023-07-22T06:43:24;18.00;99.90
27647;DHT22;42229;51.230;6.240;2023-07-22T06:45:50;18.00;99.90
27647;DHT22;42229;51.230;6.240;2023-07-22T06:48:16;18.10;99.90
27647;DHT22;42229;51.230;6.240;2023-07-22T06:50:49;18.10;99.90
27647;DHT22;42229;51.230;6.240;2023-07-22T06:53:15;18.20;99.90
27647;DHT22;42229;51.230;6.240;2023-07-22T06:55:48;18.20;99.90
27647;DHT22;42229;51.230;6.240;2023-07-22T06:58:21;18.20;99.90
27647;DHT22;42229;51.230;6.240;2023-07-22T07:00:52;18.30;99.90
27647;DHT22;42229;51.230;6.240;2023-07-22T07:03:19;18.30;99.90
27647;DHT22;42229;51.230;6.240;2023-07-22T07:05:53;18.40;99.90
27647;DHT22;42229;51.230;6.240;2023-07-22T07:08:20;18.40;99.90
27647;DHT22;42229;51.230;6.240;2023-07-22T07:10:47;18.50;99.90
27647;DHT22;42229;51.230;6.240;2023-07-22T07:13:14;18.60;99.90
27647;DHT22;42229;51.230;6.240;2023-07-22T07:15:40;18.70;99.90
27647;DHT22;42229;51.230;6.240;2023-07-22T07:18:06;18.80;99.90
27647;DHT22;42229;51.230;6.240;2023-07-22T07:20:32;18.80;99.90
27647;DHT22;42229;51.230;6.240;2023-07-22T07:22:59;18.90;99.90
27647;DHT22;42229;51.230;6.240;2023-07-22T07:25:25;18.90;99.90
27647;DHT22;42229;51.230;6.240;2023-07-22T07:27:51;19.00;99.90
27647;DHT22;42229;51.230;6.240;2023-07-22T07:30:17;19.10;99.90
27647;DHT22;42229;51.230;6.240;2023-07-22T07:32:43;19.10;99.90
27647;DHT22;42229;51.230;6.240;2023-07-22T07:35:10;19.20;99.90
27647;DHT22;42229;51.230;6.240;2023-07-22T07:37:36;19.30;99.90
27647;DHT22;42229;51.230;6.240;2023-07-22T07:40:02;19.40;99.90
27647;DHT22;42229;51.230;6.240;2023-07-22T07:42:30;19.50;99.90
27647;DHT22;42229;51.230;6.240;2023-07-22T07:44:56;19.50;99.90
27647;DHT22;42229;51.230;6.240;2023-07-22T07:47:22;19.60;99.90
27647;DHT22;42229;51.230;6.240;2023-07-22T07:49:49;19.60;99.90
27647;DHT22;42229;51.230;6.240;2023-07-22T07:52:15;19.70;99.90
27647;DHT22;42229;51.230;6.240;2023-07-22T07:54:42;19.80;99.90
27647;DHT22;42229;51.230;6.240;2023-07-22T07:57:08;19.80;99.90
27647;DHT22;42229;51.230;6.240;2023-07-22T07:59:34;19.80;99.90
27647;DHT22;42229;51.230;6.240;2023-07-22T08:02:00;19.90;99.90
27647;DHT22;42229;51.230;6.240;2023-07-22T08:04:27;20.00;99.90
27647;DHT22;42229;51.230;6.240;2023-07-22T08:06:53;20.10;99.90
27647;DHT22;42229;51.230;6.240;2023-07-22T08:09:19;20.20;99.90
27647;DHT22;42229;51.230;6.240;2023-07-22T08:11:46;20.20;99.90
27647;DHT22;42229;51.230;6.240;2023-07-22T08:14:12;20.30;99.90
27647;DHT22;42229;51.230;6.240;2023-07-22T08:16:39;20.40;99.90
27647;DHT22;42229;51.230;6.240;2023-07-22T08:19:06;20.50;99.20
27647;DHT22;42229;51.230;6.240;2023-07-22T08:21:32;20.50;99.90
27647;DHT22;42229;51.230;6.240;2023-07-22T08:23:58;20.60;99.90
27647;DHT22;42229;51.230;6.240;2023-07-22T08:26:24;20.70;99.90
27647;DHT22;42229;51.230;6.240;2023-07-22T08:28:50;20.80;99.90
27647;DHT22;42229;51.230;6.240;2023-07-22T08:31:17;20.80;99.40
27647;DHT22;42229;51.230;6.240;2023-07-22T08:33:43;20.90;98.60
27647;DHT22;42229;51.230;6.240;2023-07-22T08:36:10;20.90;99.90
27647;DHT22;42229;51.230;6.240;2023-07-22T08:38:36;20.90;99.10
27647;DHT22;42229;51.230;6.240;2023-07-22T08:41:02;21.00;99.90
27647;DHT22;42229;51.230;6.240;2023-07-22T08:43:29;21.10;98.50
27647;DHT22;42229;51.230;6.240;2023-07-22T08:45:55;21.00;99.10
27647;DHT22;42229;51.230;6.240;2023-07-22T08:48:27;21.20;98.70
27647;DHT22;42229;51.230;6.240;2023-07-22T08:50:59;21.20;99.80
27647;DHT22;42229;51.230;6.240;2023-07-22T08:53:30;21.30;99.80
27647;DHT22;42229;51.230;6.240;2023-07-22T08:55:59;21.40;98.40
27647;DHT22;42229;51.230;6.240;2023-07-22T08:58:25;21.50;99.30
27647;DHT22;42229;51.230;6.240;2023-07-22T09:00:52;21.60;98.50
27647;DHT22;42229;51.230;6.240;2023-07-22T09:03:18;21.70;97.80
27647;DHT22;42229;51.230;6.240;2023-07-22T09:05:45;21.80;98.10
27647;DHT22;42229;51.230;6.240;2023-07-22T09:08:12;21.90;97.80
27647;DHT22;42229;51.230;6.240;2023-07-22T09:10:38;21.90;96.30
27647;DHT22;42229;51.230;6.240;2023-07-22T09:13:05;22.00;98.20
27647;DHT22;42229;51.230;6.240;2023-07-22T09:15:34;22.00;97.90
27647;DHT22;42229;51.230;6.240;2023-07-22T09:18:01;22.10;95.80
27647;DHT22;42229;51.230;6.240;2023-07-22T09:20:29;22.10;98.10
27647;DHT22;42229;51.230;6.240;2023-07-22T09:22:55;22.10;96.20
27647;DHT22;42229;51.230;6.240;2023-07-22T09:25:22;22.10;95.60
27647;DHT22;42229;51.230;6.240;2023-07-22T09:27:51;22.20;97.20
27647;DHT22;42229;51.230;6.240;2023-07-22T09:30:20;22.20;96.60
27647;DHT22;42229;51.230;6.240;2023-07-22T09:32:46;22.30;97.70
27647;DHT22;42229;51.230;6.240;2023-07-22T09:35:12;22.30;97.50
27647;DHT22;42229;51.230;6.240;2023-07-22T09:37:39;22.30;97.40
27647;DHT22;42229;51.230;6.240;2023-07-22T09:40:15;22.30;97.00
27647;DHT22;42229;51.230;6.240;2023-07-22T09:42:49;22.20;94.90
27647;DHT22;42229;51.230;6.240;2023-07-22T09:45:23;22.20;95.70
27647;DHT22;42229;51.230;6.240;2023-07-22T09:47:51;22.20;96.40
27647;DHT22;42229;51.230;6.240;2023-07-22T09:50:20;22.20;94.70
27647;DHT22;42229;51.230;6.240;2023-07-22T09:52:52;22.20;94.30
27647;DHT22;42229;51.230;6.240;2023-07-22T09:55:24;22.20;95.20
27647;DHT22;42229;51.230;6.240;2023-07-22T09:57:55;22.20;95.00
27647;DHT22;42229;51.230;6.240;2023-07-22T10:00:27;22.30;95.50
27647;DHT22;42229;51.230;6.240;2023-07-22T10:02:56;22.30;95.80
27647;DHT22;42229;51.230;6.240;2023-07-22T10:05:23;22.40;96.10
27647;DHT22;42229;51.230;6.240;2023-07-22T10:07:51;22.50;94.70
27647;DHT22;42229;51.230;6.240;2023-07-22T10:10:20;22.50;94.10
27647;DHT22;42229;51.230;6.240;2023-07-22T10:12:48;22.70;96.10
27647;DHT22;42229;51.230;6.240;2023-07-22T10:15:15;22.70;95.80
27647;DHT22;42229;51.230;6.240;2023-07-22T10:17:43;22.80;95.10
27647;DHT22;42229;51.230;6.240;2023-07-22T10:20:10;22.80;95.00
27647;DHT22;42229;51.230;6.240;2023-07-22T10:22:46;23.00;96.50
27647;DHT22;42229;51.230;6.240;2023-07-22T10:25:17;23.00;92.90
27647;DHT22;42229;51.230;6.240;2023-07-22T10:27:44;23.10;95.50
27647;DHT22;42229;51.230;6.240;2023-07-22T10:30:11;23.10;93.70
27647;DHT22;42229;51.230;6.240;2023-07-22T10:32:39;23.10;93.20
27647;DHT22;42229;51.230;6.240;2023-07-22T10:35:11;23.20;93.70
27647;DHT22;42229;51.230;6.240;2023-07-22T10:37:46;23.30;95.10
27647;DHT22;42229;51.230;6.240;2023-07-22T10:40:17;23.40;92.50
27647;DHT22;42229;51.230;6.240;2023-07-22T10:42:58;23.40;92.40
27647;DHT22;42229;51.230;6.240;2023-07-22T10:45:25;23.50;91.30
27647;DHT22;42229;51.230;6.240;2023-07-22T10:48:01;23.50;90.40
27647;DHT22;42229;51.230;6.240;2023-07-22T10:50:38;23.40;88.80
27647;DHT22;42229;51.230;6.240;2023-07-22T10:53:08;23.30;89.20
27647;DHT22;42229;51.230;6.240;2023-07-22T11:06:37;23.30;91.00
27647;DHT22;42229;51.230;6.240;2023-07-22T11:09:05;23.30;90.20
27647;DHT22;42229;51.230;6.240;2023-07-22T11:11:35;23.30;91.10
27647;DHT22;42229;51.230;6.240;2023-07-22T11:14:16;23.40;91.30
27647;DHT22;42229;51.230;6.240;2023-07-22T11:16:45;23.50;91.70
27647;DHT22;42229;51.230;6.240;2023-07-22T11:19:16;23.60;90.90
27647;DHT22;42229;51.230;6.240;2023-07-22T11:21:44;23.60;90.60
27647;DHT22;42229;51.230;6.240;2023-07-22T11:24:11;23.70;90.70
27647;DHT22;42229;51.230;6.240;2023-07-22T11:26:38;23.80;89.60
27647;DHT22;42229;51.230;6.240;2023-07-22T11:29:06;23.80;89.20
27647;DHT22;42229;51.230;6.240;2023-07-22T11:31:33;24.00;90.60
27647;DHT22;42229;51.230;6.240;2023-07-22T11:34:03;24.20;90.40
27647;DHT22;42229;51.230;6.240;2023-07-22T11:36:30;24.40;88.20
27647;DHT22;42229;51.230;6.240;2023-07-22T11:39:04;24.50;89.70
27647;DHT22;42229;51.230;6.240;2023-07-22T11:41:34;24.60;88.60
27647;DHT22;42229;51.230;6.240;2023-07-22T11:44:01;24.70;87.70
27647;DHT22;42229;51.230;6.240;2023-07-22T11:46:28;24.70;88.30
27647;DHT22;42229;51.230;6.240;2023-07-22T11:48:54;24.80;87.20
27647;DHT22;42229;51.230;6.240;2023-07-22T11:51:22;24.90;87.30
27647;DHT22;42229;51.230;6.240;2023-07-22T11:53:50;24.90;87.10
27647;DHT22;42229;51.230;6.240;2023-07-22T11:56:18;25.00;87.70
27647;DHT22;42229;51.230;6.240;2023-07-22T11:58:48;24.90;84.60
27647;DHT22;42229;51.230;6.240;2023-07-22T12:01:15;25.00;88.80
27647;DHT22;42229;51.230;6.240;2023-07-22T12:03:41;25.20;87.50
27647;DHT22;42229;51.230;6.240;2023-07-22T12:06:08;25.30;82.70
27647;DHT22;42229;51.230;6.240;2023-07-22T12:08:34;25.50;79.10
27647;DHT22;42229;51.230;6.240;2023-07-22T12:11:02;25.60;81.80
27647;DHT22;42229;51.230;6.240;2023-07-22T12:13:35;25.70;81.70
27647;DHT22;42229;51.230;6.240;2023-07-22T12:16:03;25.80;80.30
27647;DHT22;42229;51.230;6.240;2023-07-22T12:18:46;25.90;81.80
27647;DHT22;42229;51.230;6.240;2023-07-22T12:21:13;26.10;85.80
27647;DHT22;42229;51.230;6.240;2023-07-22T12:23:40;26.40;80.50
27647;DHT22;42229;51.230;6.240;2023-07-22T12:26:07;26.60;81.90
27647;DHT22;42229;51.230;6.240;2023-07-22T12:28:34;26.90;76.50
27647;DHT22;42229;51.230;6.240;2023-07-22T12:31:00;27.10;80.80
27647;DHT22;42229;51.230;6.240;2023-07-22T12:33:26;27.30;75.60
27647;DHT22;42229;51.230;6.240;2023-07-22T12:35:53;27.50;77.40
27647;DHT22;42229;51.230;6.240;2023-07-22T12:38:20;27.70;80.00
27647;DHT22;42229;51.230;6.240;2023-07-22T12:40:46;27.90;72.80
27647;DHT22;42229;51.230;6.240;2023-07-22T12:43:12;28.00;72.20
27647;DHT22;42229;51.230;6.240;2023-07-22T12:45:39;28.00;68.70
27647;DHT22;42229;51.230;6.240;2023-07-22T12:48:05;27.90;73.20
27647;DHT22;42229;51.230;6.240;2023-07-22T12:50:31;27.90;67.20
27647;DHT22;42229;51.230;6.240;2023-07-22T12:52:58;27.90;73.30
27647;DHT22;42229;51.230;6.240;2023-07-22T12:55:25;27.90;75.10
27647;DHT22;42229;51.230;6.240;2023-07-22T12:57:51;27.80;65.60
27647;DHT22;42229;51.230;6.240;2023-07-22T13:00:18;27.80;70.50
27647;DHT22;42229;51.230;6.240;2023-07-22T13:02:44;27.80;72.50
27647;DHT22;42229;51.230;6.240;2023-07-22T13:05:10;27.80;68.40
27647;DHT22;42229;51.230;6.240;2023-07-22T13:07:36;28.00;74.50
27647;DHT22;42229;51.230;6.240;2023-07-22T13:10:03;28.20;68.60
27647;DHT22;42229;51.230;6.240;2023-07-22T13:12:32;28.30;67.30
27647;DHT22;42229;51.230;6.240;2023-07-22T13:14:58;28.40;63.70
27647;DHT22;42229;51.230;6.240;2023-07-22T13:17:25;28.40;69.10
27647;DHT22;42229;51.230;6.240;2023-07-22T13:19:51;28.40;67.20
27647;DHT22;42229;51.230;6.240;2023-07-22T13:22:17;28.40;63.90
27647;DHT22;42229;51.230;6.240;2023-07-22T13:24:43;28.20;66.90
27647;DHT22;42229;51.230;6.240;2023-07-22T13:27:10;28.20;63.60
27647;DHT22;42229;51.230;6.240;2023-07-22T13:29:36;28.10;63.30
27647;DHT22;42229;51.230;6.240;2023-07-22T13:32:02;27.90;64.90
27647;DHT22;42229;51.230;6.240;2023-07-22T13:34:30;27.80;65.40
27647;DHT22;42229;51.230;6.240;2023-07-22T13:36:56;27.70;65.70
27647;DHT22;42229;51.230;6.240;2023-07-22T13:39:22;27.70;65.70
27647;DHT22;42229;51.230;6.240;2023-07-22T13:41:48;27.70;67.30
27647;DHT22;42229;51.230;6.240;2023-07-22T13:44:16;27.80;70.90
27647;DHT22;42229;51.230;6.240;2023-07-22T13:46:43;27.90;64.80
27647;DHT22;42229;51.230;6.240;2023-07-22T13:49:09;27.90;66.80
27647;DHT22;42229;51.230;6.240;2023-07-22T13:51:35;27.90;66.60
27647;DHT22;42229;51.230;6.240;2023-07-22T13:54:02;27.80;63.60
27647;DHT22;42229;51.230;6.240;2023-07-22T13:56:28;27.80;68.80
27647;DHT22;42229;51.230;6.240;2023-07-22T13:58:55;27.70;63.70
27647;DHT22;42229;51.230;6.240;2023-07-22T14:01:21;27.70;65.70
27647;DHT22;42229;51.230;6.240;2023-07-22T14:03:47;27.70;66.60
27647;DHT22;42229;51.230;6.240;2023-07-22T14:06:14;27.80;66.60
27647;DHT22;42229;51.230;6.240;2023-07-22T14:08:41;27.80;63.60
27647;DHT22;42229;51.230;6.240;2023-07-22T14:11:07;27.70;63.10
27647;DHT22;42229;51.230;6.240;2023-07-22T14:13:34;27.60;64.70
27647;DHT22;42229;51.230;6.240;2023-07-22T14:16:01;27.60;65.00
27647;DHT22;42229;51.230;6.240;2023-07-22T14:18:28;27.60;65.00
27647;DHT22;42229;51.230;6.240;2023-07-22T14:20:54;27.50;62.00
27647;DHT22;42229;51.230;6.240;2023-07-22T14:23:21;27.50;62.20
27647;DHT22;42229;51.230;6.240;2023-07-22T14:25:49;27.30;64.20
27647;DHT22;42229;51.230;6.240;2023-07-22T14:28:18;27.40;62.30
27647;DHT22;42229;51.230;6.240;2023-07-22T14:30:45;27.30;61.30
27647;DHT22;42229;51.230;6.240;2023-07-22T14:33:11;27.50;61.40
27647;DHT22;42229;51.230;6.240;2023-07-22T14:35:38;27.60;60.50
27647;DHT22;42229;51.230;6.240;2023-07-22T14:38:04;27.70;60.10
27647;DHT22;42229;51.230;6.240;2023-07-22T14:40:31;27.80;62.50
27647;DHT22;42229;51.230;6.240;2023-07-22T14:42:57;27.90;60.50
27647;DHT22;42229;51.230;6.240;2023-07-22T14:45:24;28.10;65.40
27647;DHT22;42229;51.230;6.240;2023-07-22T14:47:50;28.20;63.20
27647;DHT22;42229;51.230;6.240;2023-07-22T14:50:16;28.30;62.50
27647;DHT22;42229;51.230;6.240;2023-07-22T14:52:42;28.30;64.50
27647;DHT22;42229;51.230;6.240;2023-07-22T14:55:10;28.30;61.60
27647;DHT22;42229;51.230;6.240;2023-07-22T14:57:43;28.20;60.70
27647;DHT22;42229;51.230;6.240;2023-07-22T15:00:12;28.20;63.00
27647;DHT22;42229;51.230;6.240;2023-07-22T15:02:40;28.00;60.10
27647;DHT22;42229;51.230;6.240;2023-07-22T15:09:27;27.80;61.60
27647;DHT22;42229;51.230;6.240;2023-07-22T15:11:53;27.60;60.40
27647;DHT22;42229;51.230;6.240;2023-07-22T15:14:20;27.40;60.20
27647;DHT22;42229;51.230;6.240;2023-07-22T15:16:46;27.30;60.50
27647;DHT22;42229;51.230;6.240;2023-07-22T15:19:12;27.20;62.10
27647;DHT22;42229;51.230;6.240;2023-07-22T15:21:38;27.10;60.00
27647;DHT22;42229;51.230;6.240;2023-07-22T15:24:05;27.00;61.10
27647;DHT22;42229;51.230;6.240;2023-07-22T15:26:31;26.90;60.10
27647;DHT22;42229;51.230;6.240;2023-07-22T15:28:57;26.80;61.40
27647;DHT22;42229;51.230;6.240;2023-07-22T15:31:24;26.80;60.40
27647;DHT22;42229;51.230;6.240;2023-07-22T15:33:51;26.80;63.50
27647;DHT22;42229;51.230;6.240;2023-07-22T15:36:17;26.80;61.80
27647;DHT22;42229;51.230;6.240;2023-07-22T15:38:43;26.90;61.00
27647;DHT22;42229;51.230;6.240;2023-07-22T15:41:09;26.80;61.80
27647;DHT22;42229;51.230;6.240;2023-07-22T15:43:36;26.90;61.80